Time;durP1;ratioP1;P1;durP2;ratioP2;P2;SDS_P1;SDS_P2;PMS_P1;PMS_P2;Temp;Humidity;BMP_temperature;BMP_pressure;BME280_temperature;BME280_humidity;BME280_pressure;Samples;Min_cycle;Max_cycle;Signal;HPM_P1;HPM_P2
2023/04/05 00:02:17;;;;;;;0.20;0.20;;;;;;;;;;7422187;19;20137;-96
2023/04/05 00:04:49;;;;;;;0.20;0.20;;;;;;;;;;7422003;19;20144;-95
2023/04/05 00:07:17;;;;;;;0.40;0.40;;;;;;;;;;7419497;19;20137;-95
2023/04/05 00:09:45;;;;;;;2.67;2.00;;;;;;;;;;7420022;19;20143;-96
2023/04/05 00:12:12;;;;;;;0.30;0.30;;;;;;;;;;7421791;19;20177;-96
2023/04/05 00:14:39;;;;;;;0.20;0.20;;;;;;;;;;7422051;19;20173;-94
2023/04/05 00:17:06;;;;;;;0.40;0.40;;;;;;;;;;7425904;19;20129;-96
2023/04/05 00:19:36;;;;;;;0.20;0.20;;;;;;;;;;7431690;19;20132;-95
2023/04/05 00:22:03;;;;;;;0.20;0.20;;;;;;;;;;7428562;19;20197;-95
2023/04/05 00:24:32;;;;;;;0.30;0.30;;;;;;;;;;7428860;19;20146;-96
2023/04/05 00:26:59;;;;;;;0.30;0.30;;;;;;;;;;7428299;19;20203;-96
2023/04/05 00:29:27;;;;;;;0.80;0.80;;;;;;;;;;7428564;19;20145;-95
2023/04/05 00:31:54;;;;;;;0.30;0.30;;;;;;;;;;7428235;19;20149;-96
2023/04/05 00:34:21;;;;;;;0.30;0.30;;;;;;;;;;7431114;19;20173;-95
2023/04/05 00:36:48;;;;;;;0.20;0.20;;;;;;;;;;7428215;19;20137;-95
2023/04/05 00:39:15;;;;;;;0.30;0.30;;;;;;;;;;7428550;19;20292;-93
2023/04/05 00:41:43;;;;;;;1.63;1.53;;;;;;;;;;7428044;19;20189;-95
2023/04/05 00:44:12;;;;;;;0.20;0.20;;;;;;;;;;7431249;19;20126;-95
2023/04/05 00:46:39;;;;;;;0.30;0.30;;;;;;;;;;7427783;19;20165;-95
2023/04/05 00:49:06;;;;;;;0.20;0.20;;;;;;;;;;7427741;19;20136;-93
2023/04/05 00:51:33;;;;;;;0.20;0.20;;;;;;;;;;7427719;19;20141;-91
2023/04/05 00:54:01;;;;;;;0.23;0.23;;;;;;;;;;7429466;19;20164;-95
2023/04/05 00:56:28;;;;;;;0.20;0.20;;;;;;;;;;7429934;19;20137;-94
2023/04/05 11:34:35;;;;;;;0.40;0.40;;;;;;;;;;7402432;19;20157;-90
2023/04/05 11:37:02;;;;;;;0.70;0.70;;;;;;;;;;7403113;19;20133;-92
2023/04/05 11:39:28;;;;;;;0.50;0.50;;;;;;;;;;7401312;19;20149;-91
2023/04/05 11:41:59;;;;;;;1.07;0.80;;;;;;;;;;7398266;19;20189;-90
2023/04/05 11:44:26;;;;;;;0.52;0.52;;;;;;;;;;7395998;19;20133;-91
2023/04/05 11:46:53;;;;;;;0.57;0.57;;;;;;;;;;7391642;19;20559;-90
2023/04/05 11:49:22;;;;;;;0.63;0.63;;;;;;;;;;7392614;19;20161;-90
2023/04/05 11:51:51;;;;;;;0.50;0.50;;;;;;;;;;7395737;19;20156;-90
2023/04/05 11:54:28;;;;;;;1.25;1.15;;;;;;;;;;7398671;19;20140;-89
2023/04/05 11:56:55;;;;;;;0.80;0.80;;;;;;;;;;7406719;19;20144;-90
2023/04/05 11:59:30;;;;;;;1.13;0.77;;;;;;;;;;7407443;19;20161;-90
2023/04/05 12:01:58;;;;;;;1.23;1.13;;;;;;;;;;7412992;19;20156;-89
2023/04/05 12:04:25;;;;;;;0.90;0.90;;;;;;;;;;7403114;19;20204;-90
2023/04/05 12:07:11;;;;;;;0.80;0.80;;;;;;;;;;7398937;19;20174;-91
2023/04/05 12:10:14;;;;;;;6.22;1.20;;;;;;;;;;7398225;19;20133;-90
2023/04/05 12:12:42;;;;;;;0.57;0.57;;;;;;;;;;7399591;19;20147;-90
2023/04/05 12:15:17;;;;;;;0.95;0.95;;;;;;;;;;7403355;19;20128;-90
2023/04/05 12:17:45;;;;;;;0.80;0.80;;;;;;;;;;7403885;19;20154;-90
2023/04/05 12:20:14;;;;;;;4.18;0.93;;;;;;;;;;7400987;19;20522;-89
2023/04/05 12:22:43;;;;;;;0.93;0.85;;;;;;;;;;7401557;19;20140;-90
2023/04/05 12:25:10;;;;;;;0.90;0.90;;;;;;;;;;7401949;19;20141;-90
2023/04/05 12:27:37;;;;;;;0.85;0.85;;;;;;;;;;7401835;19;20137;-91
2023/04/05 12:30:14;;;;;;;0.77;0.77;;;;;;;;;;7401675;19;20149;-90
2023/04/05 12:33:08;;;;;;;0.68;0.68;;;;;;;;;;7405210;19;20140;-90
2023/04/05 12:35:35;;;;;;;1.10;1.00;;;;;;;;;;7406052;19;20522;-91
2023/04/05 12:38:04;;;;;;;1.00;0.95;;;;;;;;;;7403511;19;20172;-92
2023/04/05 12:40:32;;;;;;;0.82;0.82;;;;;;;;;;7401736;19;20218;-91
2023/04/05 12:43:04;;;;;;;0.50;0.50;;;;;;;;;;7401094;19;20629;-91
2023/04/05 12:45:38;;;;;;;0.88;0.85;;;;;;;;;;7401265;19;20593;-92
2023/04/05 12:48:12;;;;;;;0.82;0.82;;;;;;;;;;7397909;19;20201;-91
2023/04/05 12:50:43;;;;;;;1.83;1.35;;;;;;;;;;7399617;19;20157;-92
2023/04/05 12:53:20;;;;;;;0.60;0.60;;;;;;;;;;7401940;19;20145;-93
2023/04/05 12:55:50;;;;;;;1.23;0.98;;;;;;;;;;7399002;19;20140;-91
2023/04/05 12:58:18;;;;;;;1.05;0.90;;;;;;;;;;7399578;19;20147;-89
2023/04/05 13:00:45;;;;;;;1.05;1.05;;;;;;;;;;7402262;19;20177;-90
2023/04/05 13:03:20;;;;;;;2.38;0.77;;;;;;;;;;7400687;19;20144;-89
2023/04/05 13:05:49;;;;;;;0.75;0.75;;;;;;;;;;7402248;19;20140;-90
2023/04/05 13:08:19;;;;;;;0.80;0.80;;;;;;;;;;7399084;19;20154;-90
2023/04/05 13:10:47;;;;;;;0.73;0.73;;;;;;;;;;7402303;19;20164;-89
2023/04/05 13:13:16;;;;;;;0.90;0.90;;;;;;;;;;7399403;19;20137;-89
2023/04/05 13:15:43;;;;;;;1.23;1.15;;;;;;;;;;7405643;19;20149;-90
2023/04/05 13:18:13;;;;;;;0.65;0.65;;;;;;;;;;7401277;19;20652;-90
2023/04/05 13:20:44;;;;;;;0.73;0.73;;;;;;;;;;7401500;19;20505;-90
2023/04/05 13:23:11;;;;;;;0.88;0.88;;;;;;;;;;7417812;19;20141;-89
2023/04/05 13:25:39;;;;;;;0.50;0.50;;;;;;;;;;7406645;19;20154;-90
2023/04/05 13:28:06;;;;;;;0.52;0.43;;;;;;;;;;7405265;19;20125;-90
2023/04/05 13:30:33;;;;;;;0.80;0.80;;;;;;;;;;7399477;19;20185;-90
2023/04/05 13:32:59;;;;;;;0.70;0.70;;;;;;;;;;7401522;19;20172;-90
2023/04/05 13:35:26;;;;;;;0.70;0.70;;;;;;;;;;7400911;19;20189;-90
2023/04/05 13:37:53;;;;;;;1.05;1.00;;;;;;;;;;7401597;19;20137;-90
2023/04/05 13:40:19;;;;;;;1.00;1.00;;;;;;;;;;7400920;19;20201;-90
2023/04/05 13:42:47;;;;;;;0.98;0.90;;;;;;;;;;7400205;19;20208;-90
2023/04/05 13:45:14;;;;;;;1.15;1.10;;;;;;;;;;7404991;19;20169;-90
2023/04/05 13:47:41;;;;;;;0.90;0.90;;;;;;;;;;7400193;19;20140;-90
2023/04/05 13:50:08;;;;;;;0.98;0.88;;;;;;;;;;7398891;19;20157;-90
2023/04/05 13:52:36;;;;;;;0.70;0.70;;;;;;;;;;7401111;19;20620;-90
2023/04/05 13:55:03;;;;;;;0.55;0.55;;;;;;;;;;7400705;19;20137;-90
2023/04/05 13:57:30;;;;;;;0.70;0.70;;;;;;;;;;7399951;19;20496;-90
2023/04/05 13:59:57;;;;;;;0.60;0.60;;;;;;;;;;7396081;19;20629;-90
2023/04/05 14:02:25;;;;;;;0.60;0.60;;;;;;;;;;7398781;19;20129;-90
2023/04/05 14:04:53;;;;;;;0.95;0.95;;;;;;;;;;7398118;19;20165;-90
2023/04/05 14:07:20;;;;;;;0.98;0.98;;;;;;;;;;7398373;19;20149;-90
